Time;durP1;ratioP1;P1;durP2;ratioP2;P2;SDS_P1;SDS_P2;PMS_P1;PMS_P2;Temp;Humidity;BMP_temperature;BMP_pressure;BME280_temperature;BME280_humidity;BME280_pressure;Samples;Min_cycle;Max_cycle;Signal;HPM_P1;HPM_P2
2024/01/18 00:00:32;;;;;;;11.38;2.88;;;14.30;96.70;;;;;;5092474;28;20056;-80
2024/01/18 00:03:01;;;;;;;12.40;3.28;;;14.30;96.70;;;;;;5070815;28;20742;-80
2024/01/18 00:05:29;;;;;;;12.27;3.13;;;14.30;96.70;;;;;;5094608;28;20409;-80
2024/01/18 00:07:58;;;;;;;11.95;2.83;;;14.30;96.70;;;;;;5090611;28;20066;-80
2024/01/18 00:10:28;;;;;;;12.52;3.45;;;14.30;96.70;;;;;;5070600;28;20557;-78
2024/01/18 00:12:59;;;;;;;10.23;2.75;;;14.40;96.70;;;;;;5083996;28;20086;-78
2024/01/18 00:15:28;;;;;;;16.60;3.05;;;14.30;96.70;;;;;;5088480;28;20741;-79
2024/01/18 00:18:10;;;;;;;10.98;2.38;;;14.40;96.70;;;;;;5087146;28;20056;-79
2024/01/18 00:20:39;;;;;;;11.15;3.22;;;14.30;96.70;;;;;;5091636;28;20052;-79
2024/01/18 00:23:11;;;;;;;11.82;3.17;;;14.20;96.70;;;;;;5084078;28;20497;-79
2024/01/18 00:25:40;;;;;;;10.20;3.15;;;14.20;96.70;;;;;;5089226;28;20051;-79
2024/01/18 00:28:10;;;;;;;22.10;4.32;;;14.20;96.70;;;;;;5087470;28;20704;-80
2024/01/18 00:30:42;;;;;;;15.13;4.13;;;14.20;96.70;;;;;;5078894;28;20075;-80
2024/01/18 00:33:19;;;;;;;15.32;3.88;;;14.30;96.70;;;;;;5087913;28;20594;-79
2024/01/18 00:35:48;;;;;;;15.40;3.65;;;14.30;96.70;;;;;;5072010;28;20079;-79
2024/01/18 00:38:27;;;;;;;14.90;3.63;;;14.40;96.70;;;;;;5089095;28;20424;-82
2024/01/18 00:40:59;;;;;;;11.48;2.97;;;14.40;96.70;;;;;;5087137;28;20057;-83
2024/01/18 00:43:28;;;;;;;14.52;3.63;;;14.50;96.70;;;;;;5089220;28;20044;-81
2024/01/18 00:46:01;;;;;;;11.73;2.95;;;14.50;96.70;;;;;;5087888;28;20538;-82
2024/01/18 00:48:41;;;;;;;13.18;3.58;;;14.50;96.70;;;;;;5066438;28;20560;-83
2024/01/18 00:51:34;;;;;;;16.30;3.65;;;14.60;96.70;;;;;;5059436;28;20047;-82
2024/01/18 00:54:03;;;;;;;15.48;3.45;;;14.60;96.70;;;;;;5041857;28;20509;-81
2024/01/18 00:56:40;;;;;;;19.63;3.67;;;14.60;96.70;;;;;;5069279;28;20800;-81
2024/01/18 00:59:29;;;;;;;11.25;2.58;;;14.60;96.70;;;;;;5065791;28;20135;-82
2024/01/18 01:01:58;;;;;;;13.13;3.70;;;14.60;96.70;;;;;;5066310;28;20052;-81
2024/01/18 01:04:28;;;;;;;15.38;3.15;;;14.60;96.70;;;;;;5040926;28;20057;-81
2024/01/18 01:06:57;;;;;;;12.48;2.78;;;14.60;96.70;;;;;;5061444;28;21580;-81
2024/01/18 01:09:26;;;;;;;11.73;3.58;;;14.60;96.70;;;;;;5066972;28;20045;-82
2024/01/18 01:11:56;;;;;;;15.57;3.88;;;14.60;96.70;;;;;;5066722;28;20109;-81
2024/01/18 01:14:26;;;;;;;14.10;3.88;;;14.60;96.70;;;;;;5062024;28;20045;-80
2024/01/18 01:17:05;;;;;;;15.55;4.03;;;14.60;96.70;;;;;;5061874;28;20473;-80
2024/01/18 01:19:35;;;;;;;12.70;3.33;;;14.50;96.70;;;;;;5061454;28;20506;-79
2024/01/18 01:22:04;;;;;;;18.40;3.53;;;14.60;96.70;;;;;;5064580;28;20075;-80
2024/01/18 01:24:38;;;;;;;15.05;3.95;;;14.60;96.70;;;;;;5064594;28;20048;-80
2024/01/18 01:27:08;;;;;;;18.58;3.47;;;14.60;96.70;;;;;;5056374;28;20834;-80
2024/01/18 01:29:46;;;;;;;12.10;3.80;;;14.50;96.70;;;;;;5047661;28;20091;-79
2024/01/18 01:32:14;;;;;;;21.13;3.67;;;14.60;96.70;;;;;;5065226;28;20242;-80
2024/01/18 01:34:45;;;;;;;15.43;3.72;;;14.70;96.70;;;;;;5060549;28;20053;-80
2024/01/18 01:37:14;;;;;;;17.05;4.03;;;14.70;96.70;;;;;;5063213;28;20769;-79
2024/01/18 01:39:46;;;;;;;13.18;2.75;;;14.80;96.70;;;;;;5062824;28;20460;-80
2024/01/18 01:42:15;;;;;;;8.82;2.95;;;14.80;96.70;;;;;;5066889;28;20563;-79
2024/01/18 01:44:44;;;;;;;12.35;3.00;;;14.80;96.70;;;;;;5067073;28;20596;-80
2024/01/18 01:47:13;;;;;;;14.43;3.95;;;14.80;96.70;;;;;;5062790;28;20037;-77
2024/01/18 01:49:42;;;;;;;14.13;2.72;;;14.80;96.70;;;;;;5081047;28;20587;-78
2024/01/18 01:52:25;;;;;;;11.23;2.83;;;14.80;96.70;;;;;;5067247;28;20967;-78
2024/01/18 01:54:57;;;;;;;14.48;3.22;;;14.80;96.70;;;;;;5085244;28;20520;-78
2024/01/18 01:57:44;;;;;;;13.15;3.03;;;14.70;96.70;;;;;;5067628;28;20056;-78
2024/01/18 02:00:15;;;;;;;10.80;3.25;;;14.60;96.70;;;;;;5077080;28;20066;-78
2024/01/18 02:02:46;;;;;;;14.57;3.00;;;14.50;96.70;;;;;;5074657;28;20541;-78
2024/01/18 02:05:16;;;;;;;14.48;3.25;;;14.40;96.70;;;;;;5082019;28;20432;-79
2024/01/18 02:07:55;;;;;;;12.68;3.67;;;14.30;96.70;;;;;;5073716;28;20592;-79
2024/01/18 02:10:24;;;;;;;13.50;3.22;;;14.20;96.70;;;;;;5070090;28;20080;-79
2024/01/18 02:12:53;;;;;;;11.57;3.05;;;14.20;96.70;;;;;;5086542;28;20048;-80
2024/01/18 02:15:35;;;;;;;11.85;3.03;;;14.10;96.70;;;;;;5087954;28;20485;-80
2024/01/18 02:18:04;;;;;;;9.50;2.80;;;14.00;96.70;;;;;;5069444;28;20059;-80
2024/01/18 02:20:33;;;;;;;9.45;2.92;;;13.90;96.70;;;;;;5086323;28;20440;-80
2024/01/18 02:23:08;;;;;;;13.63;3.17;;;13.90;96.70;;;;;;5069793;28;20471;-79
2024/01/18 02:25:40;;;;;;;11.80;3.38;;;13.80;96.70;;;;;;5080172;28;20052;-79
2024/01/18 02:28:11;;;;;;;9.98;3.10;;;13.70;96.70;;;;;;5073627;28;20060;-85
2024/01/18 02:30:39;;;;;;;13.10;3.33;;;13.70;96.70;;;;;;5083668;28;20507;-85
2024/01/18 02:33:07;;;;;;;9.02;3.47;;;13.60;96.70;;;;;;5087712;28;20079;-85
2024/01/18 02:35:38;;;;;;;11.65;3.40;;;13.60;96.70;;;;;;5085370;28;20686;-86
2024/01/18 02:38:08;;;;;;;9.63;3.40;;;13.60;96.70;;;;;;5075570;28;20130;-85
2024/01/18 02:40:39;;;;;;;12.75;3.15;;;13.50;96.70;;;;;;5069537;28;20475;-85
2024/01/18 02:43:09;;;;;;;8.15;2.83;;;13.50;96.70;;;;;;5068202;28;20495;-85
2024/01/18 02:45:40;;;;;;;13.45;3.30;;;13.40;96.70;;;;;;5066041;28;20051;-84
2024/01/18 02:48:08;;;;;;;11.80;3.28;;;13.40;96.70;;;;;;5078965;28;20080;-82
2024/01/18 02:50:41;;;;;;;10.85;2.80;;;13.30;96.70;;;;;;5086210;28;20228;-82
2024/01/18 02:53:09;;;;;;;11.77;3.88;;;13.30;96.70;;;;;;5082553;28;20086;-81
2024/01/18 02:55:40;;;;;;;12.18;4.07;;;13.30;96.70;;;;;;5077502;28;20036;-82
2024/01/18 02:58:09;;;;;;;13.38;3.60;;;13.20;96.70;;;;;;5087365;28;20075;-81
2024/01/18 03:00:38;;;;;;;8.85;3.22;;;13.20;96.70;;;;;;5079646;28;20045;-82
2024/01/18 03:03:08;;;;;;;13.30;3.80;;;13.20;96.70;;;;;;5075700;28;20060;-81
2024/01/18 03:05:36;;;;;;;13.90;3.80;;;13.20;96.70;;;;;;5083877;28;20060;-82
2024/01/18 03:08:05;;;;;;;12.50;3.35;;;13.10;96.70;;;;;;5083182;28;20078;-82
2024/01/18 03:10:37;;;;;;;12.77;3.35;;;13.10;96.70;;;;;;5088227;28;20096;-82
2024/01/18 03:13:09;;;;;;;11.60;3.13;;;13.10;96.70;;;;;;5082888;28;20063;-82
2024/01/18 03:15:37;;;;;;;11.70;3.08;;;13.10;96.70;;;;;;5076484;28;20047;-81
2024/01/18 03:18:06;;;;;;;12.55;3.55;;;13.10;96.70;;;;;;5082032;28;20056;-82
2024/01/18 03:20:35;;;;;;;12.43;3.50;;;13.10;96.70;;;;;;5070988;28;20112;-82
2024/01/18 03:23:05;;;;;;;9.45;3.35;;;13.10;96.70;;;;;;5071064;28;20061;-82
2024/01/18 03:25:36;;;;;;;12.45;3.17;;;13.10;96.70;;;;;;5074876;28;20060;-81
2024/01/18 03:28:05;;;;;;;10.32;3.53;;;13.10;96.70;;;;;;5079982;28;20059;-81
2024/01/18 03:30:35;;;;;;;10.82;3.47;;;13.20;96.70;;;;;;5084519;28;20131;-81
2024/01/18 03:33:06;;;;;;;15.75;3.50;;;13.20;96.70;;;;;;5083880;28;20509;-81
2024/01/18 03:35:34;;;;;;;15.05;3.28;;;13.30;96.70;;;;;;5077471;28;20072;-82
2024/01/18 03:38:03;;;;;;;13.00;3.10;;;13.40;96.70;;;;;;5081797;28;20064;-82
2024/01/18 03:40:31;;;;;;;16.52;3.53;;;13.50;96.70;;;;;;5063681;28;20532;-81
2024/01/18 03:42:59;;;;;;;15.07;3.05;;;13.50;96.70;;;;;;5075997;28;20053;-82
2024/01/18 03:45:29;;;;;;;19.95;3.65;;;13.60;96.70;;;;;;5074885;28;20062;-82
2024/01/18 03:47:59;;;;;;;16.70;3.22;;;13.70;96.70;;;;;;5081114;28;20186;-81
2024/01/18 03:50:28;;;;;;;14.07;3.33;;;13.70;96.70;;;;;;5072316;28;20036;-82
2024/01/18 03:52:56;;;;;;;16.65;4.00;;;13.80;96.70;;;;;;5083680;28;20047;-82
2024/01/18 03:55:24;;;;;;;17.77;4.05;;;13.90;96.70;;;;;;5076502;28;20052;-82
2024/01/18 03:57:53;;;;;;;12.73;2.78;;;13.90;96.70;;;;;;5086306;28;20056;-82
2024/01/18 04:00:22;;;;;;;14.10;3.33;;;13.90;96.70;;;;;;5077208;28;20063;-82
2024/01/18 04:02:52;;;;;;;15.75;3.92;;;14.10;96.70;;;;;;5085583;28;20056;-82
2024/01/18 04:05:23;;;;;;;15.85;3.60;;;14.10;96.70;;;;;;5084852;28;20596;-81
2024/01/18 04:07:54;;;;;;;16.45;3.88;;;14.20;96.70;;;;;;5077789;28;20064;-82
2024/01/18 04:10:23;;;;;;;12.55;3.55;;;14.30;96.70;;;;;;5068447;28;20061;-82
2024/01/18 04:12:51;;;;;;;16.80;3.03;;;14.30;96.70;;;;;;5082041;28;20056;-83
2024/01/18 04:15:22;;;;;;;11.30;3.33;;;14.40;96.70;;;;;;5083264;28;20135;-82
2024/01/18 04:17:50;;;;;;;12.13;3.22;;;14.30;96.70;;;;;;5083979;28;20117;-80
2024/01/18 04:20:21;;;;;;;13.60;3.40;;;14.40;96.70;;;;;;5085198;28;20702;-82
2024/01/18 04:22:54;;;;;;;16.95;3.50;;;14.30;96.70;;;;;;5080788;28;20474;-82
2024/01/18 04:25:22;;;;;;;14.20;2.97;;;14.30;96.70;;;;;;5076740;28;20080;-82
2024/01/18 04:27:50;;;;;;;16.08;3.65;;;14.30;96.70;;;;;;5066813;28;20048;-82
2024/01/18 04:30:19;;;;;;;18.73;4.57;;;14.30;96.70;;;;;;5082407;28;20420;-81
2024/01/18 04:32:47;;;;;;;24.75;4.10;;;14.30;96.70;;;;;;5071216;28;20048;-81
2024/01/18 04:35:16;;;;;;;15.77;3.38;;;14.30;96.70;;;;;;5086550;28;20097;-82
2024/01/18 04:37:44;;;;;;;19.00;4.28;;;14.40;96.70;;;;;;5079485;28;20059;-82
2024/01/18 04:40:14;;;;;;;16.80;3.80;;;14.50;96.70;;;;;;5079333;28;20143;-82
2024/01/18 04:42:42;;;;;;;19.70;3.88;;;14.50;96.70;;;;;;5084001;28;20052;-81
2024/01/18 04:45:11;;;;;;;19.42;3.80;;;14.60;96.70;;;;;;5087446;28;20756;-81
2024/01/18 04:47:39;;;;;;;21.70;3.85;;;14.60;96.70;;;;;;5090096;28;20521;-81
2024/01/18 04:50:08;;;;;;;20.20;3.95;;;14.70;96.70;;;;;;5069017;28;20056;-81
2024/01/18 04:52:36;;;;;;;21.50;4.57;;;14.70;96.70;;;;;;5086077;28;20056;-82
2024/01/18 04:55:05;;;;;;;17.20;3.83;;;14.60;96.70;;;;;;5085038;28;20048;-82
2024/01/18 04:57:36;;;;;;;18.25;4.18;;;14.60;96.70;;;;;;5078812;28;20508;-80
2024/01/18 05:00:10;;;;;;;21.25;4.90;;;14.70;96.70;;;;;;5087192;28;20523;-81
2024/01/18 05:02:39;;;;;;;16.75;3.97;;;14.70;96.70;;;;;;5084934;28;20059;-81
2024/01/18 05:05:09;;;;;;;14.93;4.22;;;14.70;96.70;;;;;;5082314;28;20516;-81
2024/01/18 05:07:38;;;;;;;14.25;3.83;;;14.70;96.70;;;;;;5074242;28;20118;-81
2024/01/18 05:10:08;;;;;;;21.80;4.57;;;14.60;96.70;;;;;;5078855;28;20136;-81
2024/01/18 05:12:40;;;;;;;20.88;4.68;;;14.60;96.70;;;;;;5069514;28;20057;-81
2024/01/18 05:15:12;;;;;;;22.90;5.03;;;14.70;96.70;;;;;;5087914;28;20048;-80
2024/01/18 05:17:43;;;;;;;29.98;6.45;;;14.70;96.70;;;;;;5085888;28;20125;-81
2024/01/18 05:20:18;;;;;;;24.58;4.82;;;14.70;96.70;;;;;;5080217;28;20059;-81
2024/01/18 05:22:47;;;;;;;20.45;5.03;;;14.70;96.70;;;;;;5088531;28;20390;-81
2024/01/18 05:25:15;;;;;;;22.40;4.55;;;14.70;96.70;;;;;;5077469;28;20524;-83
2024/01/18 05:27:45;;;;;;;23.33;4.90;;;14.70;96.70;;;;;;5087686;28;20068;-82
2024/01/18 05:30:14;;;;;;;21.50;4.38;;;14.80;96.70;;;;;;5086834;28;20054;-82
2024/01/18 05:32:42;;;;;;;22.65;5.55;;;14.80;96.70;;;;;;5085853;28;20502;-82
2024/01/18 05:35:10;;;;;;;28.35;5.80;;;14.80;96.70;;;;;;5075335;28;20811;-82
2024/01/18 05:37:39;;;;;;;23.65;4.78;;;14.80;96.70;;;;;;5078779;28;20113;-83
2024/01/18 05:40:08;;;;;;;27.88;5.20;;;14.70;96.70;;;;;;5085191;28;20056;-82
2024/01/18 05:42:37;;;;;;;23.45;5.10;;;14.70;96.70;;;;;;5083860;28;20641;-82
2024/01/18 05:45:08;;;;;;;28.33;5.65;;;14.70;96.70;;;;;;5077766;28;20036;-82
2024/01/18 05:47:36;;;;;;;27.90;5.72;;;14.70;96.70;;;;;;5083720;28;20056;-83
2024/01/18 05:50:06;;;;;;;25.90;5.78;;;14.70;96.70;;;;;;5086073;28;20052;-83
2024/01/18 05:52:34;;;;;;;25.95;5.47;;;14.70;96.70;;;;;;5077949;28;20056;-83
2024/01/18 05:55:04;;;;;;;23.75;5.35;;;14.70;96.70;;;;;;5077887;28;20832;-84
2024/01/18 05:57:37;;;;;;;27.00;5.53;;;14.60;96.70;;;;;;5080714;28;20056;-82
2024/01/18 06:00:09;;;;;;;29.48;6.10;;;14.60;96.70;;;;;;5079852;28;20593;-83
2024/01/18 06:02:37;;;;;;;25.42;5.47;;;14.60;96.70;;;;;;5069198;28;20107;-82
2024/01/18 06:05:09;;;;;;;25.27;5.35;;;14.60;96.70;;;;;;5075886;28;20102;-82
2024/01/18 06:07:42;;;;;;;29.30;5.90;;;14.50;96.70;;;;;;5081741;28;20056;-81
2024/01/18 06:10:11;;;;;;;22.23;5.43;;;14.50;96.70;;;;;;5084312;28;20067;-82
2024/01/18 06:12:39;;;;;;;30.83;6.72;;;14.50;96.70;;;;;;5082591;28;20058;-82
2024/01/18 06:15:11;;;;;;;26.88;5.55;;;14.40;96.70;;;;;;5078139;28;20144;-85
2024/01/18 06:17:40;;;;;;;29.58;4.80;;;14.40;96.70;;;;;;5071016;28;20084;-82
2024/01/18 06:20:09;;;;;;;26.75;6.10;;;14.40;96.70;;;;;;5078093;28;20048;-84
2024/01/18 06:22:38;;;;;;;25.50;5.40;;;14.40;96.70;;;;;;5077169;28;20064;-82
2024/01/18 06:25:07;;;;;;;28.95;5.57;;;14.40;96.70;;;;;;5076125;28;20113;-82
2024/01/18 06:27:35;;;;;;;23.95;5.63;;;14.40;96.70;;;;;;5085975;28;20052;-82
2024/01/18 06:30:10;;;;;;;28.92;5.57;;;14.40;96.70;;;;;;5051291;28;20093;-82
2024/01/18 06:32:42;;;;;;;23.85;5.55;;;14.40;96.70;;;;;;5086175;28;20039;-81
2024/01/18 06:35:11;;;;;;;29.88;6.18;;;14.40;96.70;;;;;;5077660;28;20125;-82
2024/01/18 06:37:39;;;;;;;36.55;7.05;;;14.40;96.70;;;;;;5076579;28;20055;-81
2024/01/18 06:40:09;;;;;;;37.85;6.10;;;14.50;96.70;;;;;;5064556;28;20060;-81
2024/01/18 06:42:37;;;;;;;31.50;6.57;;;14.50;96.70;;;;;;5077176;28;20094;-81
2024/01/18 06:45:07;;;;;;;34.33;5.97;;;14.50;96.70;;;;;;5066031;28;20079;-82
2024/01/18 06:47:36;;;;;;;42.78;7.07;;;14.50;96.70;;;;;;5076771;28;20109;-81
2024/01/18 06:50:09;;;;;;;32.08;6.22;;;14.50;96.70;;;;;;5084452;28;20195;-81
2024/01/18 06:52:39;;;;;;;29.17;6.00;;;14.50;96.70;;;;;;5067949;28;20501;-82
2024/01/18 06:55:08;;;;;;;29.70;7.25;;;14.50;96.70;;;;;;5080544;28;20528;-81
2024/01/18 06:57:36;;;;;;;35.50;6.70;;;14.50;96.70;;;;;;5076777;28;20056;-83
2024/01/18 07:00:06;;;;;;;33.70;7.38;;;14.50;96.70;;;;;;5086268;28;20056;-83
2024/01/18 07:02:34;;;;;;;43.42;8.00;;;14.60;96.70;;;;;;5077302;28;20130;-82
2024/01/18 07:05:08;;;;;;;31.20;6.93;;;14.50;96.70;;;;;;5075205;28;20052;-81
2024/01/18 07:07:36;;;;;;;37.05;8.10;;;14.50;96.70;;;;;;5080062;28;20066;-81
2024/01/18 07:10:06;;;;;;;40.70;7.07;;;14.60;96.70;;;;;;5080514;28;20147;-84
2024/01/18 07:12:35;;;;;;;37.95;8.57;;;14.60;96.70;;;;;;5074385;28;20055;-81
2024/01/18 07:15:03;;;;;;;30.75;6.15;;;14.60;96.70;;;;;;5068700;28;20051;-84
2024/01/18 07:17:32;;;;;;;40.22;7.80;;;14.60;96.70;;;;;;5079422;28;20052;-83
2024/01/18 07:20:03;;;;;;;34.20;7.20;;;14.60;96.70;;;;;;5078395;28;20113;-82
2024/01/18 07:22:33;;;;;;;37.90;7.03;;;14.50;96.70;;;;;;5085236;28;20531;-82
2024/01/18 07:25:03;;;;;;;32.88;6.35;;;14.50;96.70;;;;;;5077107;28;20063;-81
2024/01/18 07:27:33;;;;;;;27.70;6.28;;;14.60;96.70;;;;;;5076457;28;20508;-81
2024/01/18 07:30:04;;;;;;;30.52;6.95;;;14.50;96.70;;;;;;5086188;28;20085;-81
2024/01/18 07:32:33;;;;;;;32.40;6.22;;;14.50;96.70;;;;;;5081769;28;20045;-79
2024/01/18 07:35:02;;;;;;;26.52;6.30;;;14.50;96.70;;;;;;5071229;28;20102;-80
2024/01/18 07:37:36;;;;;;;35.38;7.25;;;14.50;96.70;;;;;;5074028;28;20147;-80
2024/01/18 07:40:06;;;;;;;35.75;7.63;;;14.50;96.70;;;;;;5083883;28;20125;-80
2024/01/18 07:42:35;;;;;;;32.63;7.57;;;14.50;96.70;;;;;;5068163;28;20052;-80
2024/01/18 07:45:11;;;;;;;31.88;6.53;;;14.50;96.70;;;;;;5070228;28;20064;-80
2024/01/18 07:47:40;;;;;;;32.25;6.50;;;14.50;96.70;;;;;;5084321;28;20051;-80
2024/01/18 07:50:20;;;;;;;34.70;6.20;;;14.60;96.70;;;;;;5076748;28;20596;-80
2024/01/18 07:53:04;;;;;;;31.75;6.45;;;14.60;96.70;;;;;;5081209;28;20078;-79
2024/01/18 07:55:36;;;;;;;27.80;7.07;;;14.60;96.70;;;;;;5070643;28;20649;-79
2024/01/18 07:58:04;;;;;;;31.77;6.55;;;14.70;96.70;;;;;;5080316;28;20063;-78
2024/01/18 08:00:33;;;;;;;31.75;6.88;;;14.70;96.70;;;;;;5080510;28;20551;-79
2024/01/18 08:03:04;;;;;;;35.05;6.88;;;14.80;96.70;;;;;;5084220;28;20527;-78
2024/01/18 08:05:39;;;;;;;27.08;5.85;;;14.80;96.70;;;;;;5079070;28;20044;-78
2024/01/18 08:08:09;;;;;;;35.63;6.40;;;14.90;96.70;;;;;;5085395;28;20247;-78
2024/01/18 08:10:38;;;;;;;33.03;6.50;;;14.90;96.70;;;;;;5087593;28;20062;-79
2024/01/18 08:13:07;;;;;;;27.88;6.13;;;14.90;96.70;;;;;;5089408;28;20463;-78
2024/01/18 08:15:35;;;;;;;32.00;6.18;;;15.00;96.70;;;;;;5087767;28;20055;-78
2024/01/18 08:18:04;;;;;;;33.53;6.18;;;15.00;96.70;;;;;;5081054;28;20055;-78
2024/01/18 08:20:36;;;;;;;32.03;6.32;;;15.00;96.70;;;;;;5081841;28;20071;-79
2024/01/18 08:23:04;;;;;;;33.67;7.20;;;15.00;96.70;;;;;;5078059;28;20083;-79
2024/01/18 08:25:34;;;;;;;35.85;6.75;;;15.00;96.70;;;;;;5087881;28;20052;-79
2024/01/18 08:28:05;;;;;;;35.95;6.75;;;15.00;96.70;;;;;;5102028;28;20053;-79
2024/01/18 08:30:34;;;;;;;28.13;7.03;;;15.10;96.70;;;;;;5091525;28;20629;-77
2024/01/18 08:33:03;;;;;;;28.75;6.55;;;15.10;96.70;;;;;;5081386;28;20497;-77
2024/01/18 08:35:31;;;;;;;31.33;7.60;;;15.10;96.70;;;;;;5085684;28;20052;-80
2024/01/18 08:38:00;;;;;;;40.08;8.93;;;15.10;96.70;;;;;;5086674;28;20060;-80
2024/01/18 08:40:28;;;;;;;36.50;6.85;;;15.10;96.70;;;;;;5085265;28;20521;-79
2024/01/18 08:42:59;;;;;;;26.30;5.07;;;15.10;96.70;;;;;;5068868;28;20082;-79
2024/01/18 08:45:31;;;;;;;29.00;5.65;;;15.10;96.70;;;;;;5083939;28;20056;-79
2024/01/18 08:48:01;;;;;;;27.55;5.50;;;15.20;96.70;;;;;;5087157;28;20143;-80
2024/01/18 08:50:31;;;;;;;27.55;6.38;;;15.20;96.70;;;;;;5076852;28;20054;-80
2024/01/18 08:53:00;;;;;;;27.90;5.25;;;15.20;96.70;;;;;;5082748;28;20076;-80
2024/01/18 08:55:38;;;;;;;25.10;5.95;;;15.20;96.70;;;;;;5070847;28;20048;-78
2024/01/18 08:58:11;;;;;;;36.90;7.88;;;15.20;96.70;;;;;;5088352;28;20066;-78
2024/01/18 09:00:40;;;;;;;29.85;6.60;;;15.20;96.70;;;;;;5082328;28;20099;-77
2024/01/18 09:03:09;;;;;;;26.48;5.35;;;15.20;96.70;;;;;;5087987;28;20056;-79
2024/01/18 09:05:38;;;;;;;24.50;6.03;;;15.20;96.70;;;;;;5065577;28;20052;-78
2024/01/18 09:08:22;;;;;;;31.05;5.68;;;15.20;96.70;;;;;;5078019;28;20125;-79
2024/01/18 09:10:52;;;;;;;28.67;7.15;;;15.20;96.70;;;;;;5036957;28;20062;-78
2024/01/18 09:13:23;;;;;;;29.92;6.40;;;15.20;96.70;;;;;;5084843;28;20553;-76
2024/01/18 09:15:53;;;;;;;26.33;5.68;;;15.20;96.70;;;;;;5078162;28;20470;-77
2024/01/18 09:18:42;;;;;;;29.02;5.32;;;15.30;96.70;;;;;;5075485;28;20055;-76
2024/01/18 09:21:31;;;;;;;27.05;4.55;;;15.30;96.70;;;;;;5074469;28;20294;-76
2024/01/18 09:24:02;;;;;;;25.23;5.97;;;15.40;96.70;;;;;;5083930;28;20420;-76
2024/01/18 09:26:32;;;;;;;33.30;7.18;;;15.40;96.70;;;;;;5077466;28;20056;-76
2024/01/18 09:29:02;;;;;;;27.20;5.88;;;15.50;96.70;;;;;;5086445;28;20040;-75
2024/01/18 09:31:31;;;;;;;25.58;5.93;;;15.50;96.70;;;;;;5082960;28;20056;-75
2024/01/18 09:34:10;;;;;;;27.80;4.57;;;15.60;96.70;;;;;;5074580;28;20059;-76
2024/01/18 09:36:40;;;;;;;20.92;4.63;;;15.60;96.70;;;;;;5088129;28;20051;-74
2024/01/18 09:39:15;;;;;;;27.40;6.15;;;15.70;96.70;;;;;;5082785;28;20582;-75
2024/01/18 09:41:50;;;;;;;28.25;6.07;;;15.70;96.70;;;;;;5082704;28;20417;-75
2024/01/18 09:44:29;;;;;;;24.65;5.57;;;15.80;96.70;;;;;;5074159;28;20584;-76
2024/01/18 09:46:58;;;;;;;26.73;4.75;;;15.80;96.70;;;;;;5085749;28;20047;-77
2024/01/18 09:49:31;;;;;;;26.50;5.68;;;15.80;96.70;;;;;;5078005;28;20056;-77
2024/01/18 09:52:08;;;;;;;23.27;5.35;;;15.90;96.70;;;;;;5072184;28;20420;-77
2024/01/18 09:54:43;;;;;;;23.67;4.90;;;15.90;96.70;;;;;;5084446;28;20060;-77
2024/01/18 10:00:34;;;;;;;23.27;5.65;;;16.00;96.70;;;;;;5054472;28;20116;-78
2024/01/18 10:03:06;;;;;;;24.55;5.45;;;16.10;96.70;;;;;;5082335;28;20056;-77
2024/01/18 10:05:46;;;;;;;24.70;4.68;;;16.10;96.70;;;;;;5082400;28;20066;-77
2024/01/18 10:08:16;;;;;;;27.75;5.13;;;16.10;96.70;;;;;;5083851;28;20078;-79
2024/01/18 10:10:45;;;;;;;26.45;5.38;;;16.20;96.70;;;;;;5078398;28;20056;-78
2024/01/18 10:13:25;;;;;;;26.63;5.43;;;16.20;96.70;;;;;;5086619;28;20101;-79
2024/01/18 10:15:56;;;;;;;27.98;4.82;;;16.30;96.70;;;;;;5077748;28;20084;-79
2024/01/18 10:18:25;;;;;;;22.35;4.80;;;16.30;96.70;;;;;;5081973;28;20527;-79
2024/01/18 10:20:55;;;;;;;29.65;5.47;;;16.30;96.70;;;;;;5077035;28;20078;-79
2024/01/18 10:23:24;;;;;;;26.45;5.60;;;16.30;96.70;;;;;;5072092;28;20052;-79
2024/01/18 10:25:54;;;;;;;23.50;4.63;;;16.30;96.70;;;;;;5078160;28;20057;-79
2024/01/18 10:28:23;;;;;;;23.55;4.95;;;16.30;96.70;;;;;;5064890;28;20109;-79
2024/01/18 10:30:54;;;;;;;23.83;5.03;;;16.30;96.70;;;;;;5067856;28;20052;-79
2024/01/18 10:33:23;;;;;;;25.30;4.60;;;16.30;96.70;;;;;;5085989;28;20109;-80
2024/01/18 10:36:01;;;;;;;22.10;5.13;;;16.30;96.70;;;;;;5072215;28;20394;-80
2024/01/18 10:38:38;;;;;;;24.48;4.93;;;16.40;96.70;;;;;;5073098;28;20513;-81
2024/01/18 10:41:11;;;;;;;26.98;4.70;;;16.40;96.70;;;;;;5076469;28;20064;-81
2024/01/18 10:43:43;;;;;;;26.48;4.80;;;16.40;96.70;;;;;;5067642;28;20140;-80
2024/01/18 10:46:28;;;;;;;28.38;5.40;;;16.50;96.70;;;;;;5084100;28;20063;-80
2024/01/18 10:48:57;;;;;;;23.92;5.53;;;16.50;96.70;;;;;;5084388;28;20056;-79
2024/01/18 10:51:27;;;;;;;26.13;5.28;;;16.50;96.70;;;;;;5069346;28;20052;-79
2024/01/18 10:54:43;;;;;;;24.63;5.63;;;16.50;96.70;;;;;;5072254;28;20487;-81
2024/01/18 10:57:03;;;;;;;25.17;8.07;;;16.60;96.70;;;;;;5082871;28;20075;-79
2024/01/18 10:59:32;;;;;;;21.33;6.57;;;16.60;96.70;;;;;;5084448;28;20052;-79
2024/01/18 11:02:03;;;;;;;24.13;5.15;;;16.70;96.70;;;;;;5081034;28;20492;-81
2024/01/18 11:04:34;;;;;;;25.80;6.53;;;16.70;96.70;;;;;;5081772;28;20062;-79
2024/01/18 11:07:04;;;;;;;20.55;4.82;;;16.70;96.70;;;;;;5081964;28;20059;-78
2024/01/18 11:09:36;;;;;;;31.58;5.68;;;16.70;96.70;;;;;;5078489;28;20052;-79
2024/01/18 11:12:07;;;;;;;26.10;4.65;;;16.70;96.70;;;;;;5071768;28;20079;-79
2024/01/18 11:14:37;;;;;;;21.60;4.57;;;16.60;96.70;;;;;;5076900;28;20169;-78
2024/01/18 11:17:13;;;;;;;24.83;5.25;;;16.60;96.70;;;;;;5076959;28;20050;-81
2024/01/18 11:19:43;;;;;;;28.75;5.63;;;16.60;96.70;;;;;;5074380;28;20539;-78
2024/01/18 11:22:23;;;;;;;22.73;4.95;;;16.50;96.70;;;;;;5076876;28;20554;-77
2024/01/18 11:24:53;;;;;;;27.92;4.80;;;16.50;96.70;;;;;;5075732;28;20060;-77
2024/01/18 11:27:23;;;;;;;32.20;5.03;;;16.60;96.70;;;;;;5079710;28;20076;-78
2024/01/18 11:30:10;;;;;;;27.40;5.18;;;16.60;96.70;;;;;;5084892;28;20159;-79
2024/01/18 11:32:42;;;;;;;22.10;4.78;;;16.70;96.70;;;;;;5077809;28;20426;-79
2024/01/18 11:35:13;;;;;;;35.25;5.43;;;16.80;96.70;;;;;;5067199;28;20053;-80
2024/01/18 11:37:42;;;;;;;22.00;5.05;;;16.90;96.70;;;;;;5079578;28;20048;-80
2024/01/18 11:40:12;;;;;;;27.30;5.38;;;16.90;96.70;;;;;;5070086;28;20060;-80
2024/01/18 11:42:41;;;;;;;21.20;4.20;;;16.80;96.70;;;;;;5079044;28;20067;-80
2024/01/18 11:45:17;;;;;;;21.88;4.65;;;16.80;96.70;;;;;;5071356;28;20044;-79
2024/01/18 11:47:48;;;;;;;21.90;5.07;;;16.80;96.70;;;;;;5075942;28;20387;-81
2024/01/18 11:50:17;;;;;;;29.48;5.53;;;16.80;96.70;;;;;;5074698;28;20055;-81
2024/01/18 11:52:46;;;;;;;24.45;4.50;;;16.80;96.70;;;;;;5087656;28;20123;-80
2024/01/18 11:55:17;;;;;;;27.52;4.93;;;16.80;96.70;;;;;;5079573;28;20102;-80
2024/01/18 11:58:00;;;;;;;;;;;;;;;;;;;;;
2024/01/18 12:00:35;;;;;;;28.10;5.18;;;17.00;96.70;;;;;;5079801;28;20091;-81
2024/01/18 12:03:07;;;;;;;29.20;5.93;;;17.10;96.70;;;;;;5072280;28;20062;-81
2024/01/18 12:05:39;;;;;;;24.67;4.90;;;17.10;96.70;;;;;;5076586;28;20604;-79
2024/01/18 12:08:16;;;;;;;28.23;5.15;;;17.00;96.70;;;;;;5076943;28;20127;-85
2024/01/18 12:10:45;;;;;;;23.58;5.40;;;17.00;96.70;;;;;;5085651;28;20110;-79
2024/01/18 12:13:17;;;;;;;25.15;4.90;;;16.90;96.70;;;;;;5086269;28;20059;-79
2024/01/18 12:15:52;;;;;;;21.23;5.07;;;16.90;96.70;;;;;;5072313;28;20048;-79
2024/01/18 12:18:23;;;;;;;26.73;5.63;;;16.90;96.70;;;;;;5088218;28;20055;-78
2024/01/18 12:20:52;;;;;;;30.92;6.40;;;16.90;96.70;;;;;;5060421;28;20064;-78
2024/01/18 12:23:21;;;;;;;26.65;5.25;;;16.80;96.70;;;;;;5076357;28;20052;-79
2024/01/18 12:25:50;;;;;;;21.35;4.28;;;16.80;96.70;;;;;;5081293;28;20105;-82
2024/01/18 12:28:19;;;;;;;25.25;5.00;;;16.80;96.70;;;;;;5080043;28;20061;-80
2024/01/18 12:30:49;;;;;;;25.88;5.75;;;16.90;96.70;;;;;;5083504;28;20548;-80
2024/01/18 12:33:18;;;;;;;25.55;5.70;;;17.00;96.70;;;;;;5088487;28;20052;-79
2024/01/18 12:35:51;;;;;;;28.20;5.47;;;17.00;96.70;;;;;;5079841;28;20120;-81
2024/01/18 12:38:20;;;;;;;23.40;4.28;;;16.90;96.70;;;;;;5088108;28;20056;-79
2024/01/18 12:40:48;;;;;;;25.45;5.78;;;16.90;96.70;;;;;;5072307;28;20163;-82
2024/01/18 12:43:18;;;;;;;23.08;5.63;;;16.90;96.70;;;;;;5089065;28;20048;-83
2024/01/18 12:45:51;;;;;;;29.88;5.82;;;16.90;96.70;;;;;;5083790;28;20057;-81
2024/01/18 12:48:23;;;;;;;21.52;5.80;;;16.90;96.70;;;;;;5078112;28;20056;-82
2024/01/18 12:50:54;;;;;;;22.38;5.45;;;16.90;96.70;;;;;;5070256;28;20048;-82
2024/01/18 12:53:25;;;;;;;24.13;5.60;;;16.90;96.70;;;;;;5064751;28;20056;-82
2024/01/18 12:55:56;;;;;;;27.40;6.35;;;16.90;96.70;;;;;;5071235;28;20052;-82
2024/01/18 12:58:26;;;;;;;28.75;5.80;;;16.90;96.70;;;;;;5069344;28;20412;-86
2024/01/18 13:00:55;;;;;;;25.65;5.55;;;16.90;96.70;;;;;;5090979;28;20779;-86